UAE657 VRMM-OMDB
Flight info
| Callsign | UAE657 |
|---|---|
| Flight time | N/A |
| Altitude | 40000 |
| Route | ELBET1A ELBET L894 KITAL P570 ITURA M762 VAXAS/N0465F240 M762 MIVEK P574 IMPED IMPED3C |
| Aircraft | A359/H-SDE2E3GHIJ3J4J5LM1ORWXY/LB1D1 |
Departure
| Time | N/A |
|---|---|
| Airport | Velana International Airport (VRMM) |
Arrival
| Time | 2026-04-21 17:22 |
|---|---|
| Airport | Dubai International Airport (OMDB) |
| Time | Latitude | Longitude | Altitude | Speed | Heading |
|---|---|---|---|---|---|
| 2026-04-21 17:09 | 25.12443 | 55.74303 | 5907 ft | 274 kts | 121° |
| 2026-04-21 17:09 | 25.11869 | 55.75330 | 5907 ft | 274 kts | 121° |
| 2026-04-21 17:09 | 25.10869 | 55.77116 | 5907 ft | 274 kts | 122° |
| 2026-04-21 17:10 | 25.09868 | 55.78907 | 5907 ft | 274 kts | 122° |
| 2026-04-21 17:10 | 25.08890 | 55.80654 | 5877 ft | 263 kts | 121° |
| 2026-04-21 17:10 | 25.07942 | 55.82348 | 5382 ft | 254 kts | 121° |
| 2026-04-21 17:10 | 25.07041 | 55.83956 | 5004 ft | 238 kts | 122° |
| 2026-04-21 17:11 | 25.06062 | 55.85302 | 4906 ft | 222 kts | 144° |
| 2026-04-21 17:11 | 25.04593 | 55.85751 | 4904 ft | 224 kts | 185° |
| 2026-04-21 17:11 | 25.03187 | 55.85094 | 4917 ft | 224 kts | 217° |
| 2026-04-21 17:11 | 25.01959 | 55.84028 | 4914 ft | 224 kts | 216° |
| 2026-04-21 17:12 | 25.00752 | 55.82978 | 4899 ft | 224 kts | 228° |
| 2026-04-21 17:12 | 25.00213 | 55.81399 | 4882 ft | 223 kts | 271° |
| 2026-04-21 17:12 | 25.00715 | 55.79862 | 4895 ft | 209 kts | 306° |
| 2026-04-21 17:12 | 25.01607 | 55.78643 | 4911 ft | 202 kts | 307° |
| 2026-04-21 17:13 | 25.02413 | 55.77390 | 4909 ft | 202 kts | 304° |
| 2026-04-21 17:13 | 25.03199 | 55.76082 | 4908 ft | 202 kts | 303° |
| 2026-04-21 17:13 | 25.03956 | 55.74778 | 4908 ft | 202 kts | 303° |
| 2026-04-21 17:13 | 25.04701 | 55.73473 | 4892 ft | 203 kts | 302° |
| 2026-04-21 17:14 | 25.05456 | 55.72138 | 4538 ft | 205 kts | 302° |
| 2026-04-21 17:14 | 25.06190 | 55.70831 | 4420 ft | 199 kts | 302° |
| 2026-04-21 17:14 | 25.06917 | 55.69533 | 4405 ft | 195 kts | 302° |
| 2026-04-21 17:14 | 25.07624 | 55.68268 | 4101 ft | 193 kts | 302° |
| 2026-04-21 17:15 | 25.08308 | 55.67041 | 3914 ft | 187 kts | 302° |
| 2026-04-21 17:15 | 25.08993 | 55.65813 | 3913 ft | 186 kts | 302° |
| 2026-04-21 17:15 | 25.09623 | 55.64682 | 3884 ft | 159 kts | 302° |
| 2026-04-21 17:15 | 25.10190 | 55.63660 | 3905 ft | 156 kts | 302° |
| 2026-04-21 17:16 | 25.10759 | 55.62635 | 3718 ft | 161 kts | 302° |
| 2026-04-21 17:16 | 25.11351 | 55.61575 | 3365 ft | 156 kts | 302° |
| 2026-04-21 17:16 | 25.11894 | 55.60614 | 3315 ft | 145 kts | 302° |
| 2026-04-21 17:16 | 25.12448 | 55.59645 | 3316 ft | 151 kts | 302° |
| 2026-04-21 17:17 | 25.13010 | 55.58669 | 3311 ft | 151 kts | 303° |
| 2026-04-21 17:17 | 25.13569 | 55.57695 | 3309 ft | 151 kts | 303° |
| 2026-04-21 17:17 | 25.14131 | 55.56717 | 3203 ft | 153 kts | 303° |
| 2026-04-21 17:17 | 25.14707 | 55.55716 | 2864 ft | 151 kts | 303° |
| 2026-04-21 17:18 | 25.15313 | 55.54659 | 2850 ft | 168 kts | 303° |
| 2026-04-21 17:18 | 25.15909 | 55.53620 | 2804 ft | 153 kts | 302° |
| 2026-04-21 17:18 | 25.16483 | 55.52614 | 2700 ft | 158 kts | 302° |
| 2026-04-21 17:18 | 25.17055 | 55.51601 | 2429 ft | 152 kts | 299° |
| 2026-04-21 17:19 | 25.17495 | 55.50526 | 2422 ft | 154 kts | 294° |
| 2026-04-21 17:19 | 25.17979 | 55.49479 | 2405 ft | 154 kts | 301° |
| 2026-04-21 17:19 | 25.18552 | 55.48445 | 2219 ft | 166 kts | 302° |
| 2026-04-21 17:19 | 25.19177 | 55.47317 | 1978 ft | 178 kts | 302° |
| 2026-04-21 17:20 | 25.19854 | 55.46113 | 1742 ft | 186 kts | 302° |
| 2026-04-21 17:20 | 25.20530 | 55.44902 | 1505 ft | 190 kts | 302° |
| 2026-04-21 17:20 | 25.21252 | 55.43656 | 1169 ft | 190 kts | 303° |
| 2026-04-21 17:20 | 25.21930 | 55.42449 | 802 ft | 179 kts | 302° |
| 2026-04-21 17:21 | 25.22549 | 55.41343 | 530 ft | 163 kts | 302° |
| 2026-04-21 17:21 | 25.23127 | 55.40308 | 257 ft | 152 kts | 302° |
| 2026-04-21 17:21 | 25.23648 | 55.39375 | 111 ft | 137 kts | 302° |
| 2026-04-21 17:21 | 25.24102 | 55.38565 | 35 ft | 106 kts | 301° |
| 2026-04-21 17:22 | 25.24325 | 55.38162 | 40 ft | 78 kts | 302° |
| 2026-04-21 17:22 | 25.24581 | 55.37685 | 45 ft | 32 kts | 289° |
| 2026-04-21 17:22 | 25.24616 | 55.37510 | 50 ft | 13 kts | 275° |
| 2026-04-21 17:22 | 25.24619 | 55.37422 | 53 ft | 10 kts | 271° |
| 2026-04-21 17:23 | 25.24620 | 55.37357 | 55 ft | 0 kts | 272° |
| 2026-04-21 17:24 | 25.24620 | 55.37352 | 56 ft | 4 kts | 272° |
| 2026-04-21 17:24 | 25.24623 | 55.37304 | 58 ft | 7 kts | 277° |
| 2026-04-21 17:25 | 25.24642 | 55.37234 | 62 ft | 8 kts | 296° |
| 2026-04-21 17:25 | 25.24675 | 55.37171 | 66 ft | 11 kts | 300° |
| 2026-04-21 17:25 | 25.24724 | 55.37080 | 68 ft | 13 kts | 301° |
| 2026-04-21 17:25 | 25.24756 | 55.37023 | 70 ft | 5 kts | 301° |
| 2026-04-21 17:26 | 25.24761 | 55.36991 | 71 ft | 4 kts | 256° |
| 2026-04-21 17:26 | 25.24744 | 55.36917 | 71 ft | 12 kts | 260° |
| 2026-04-21 17:26 | 25.24762 | 55.36811 | 68 ft | 14 kts | 289° |
| 2026-04-21 17:26 | 25.24786 | 55.36720 | 65 ft | 14 kts | 285° |
| 2026-04-21 17:27 | 25.24826 | 55.36600 | 57 ft | 13 kts | 300° |
| 2026-04-21 17:27 | 25.24872 | 55.36515 | 50 ft | 10 kts | 302° |
| 2026-04-21 17:27 | 25.24894 | 55.36474 | 47 ft | 5 kts | 299° |
| 2026-04-21 17:27 | 25.24907 | 55.36415 | 43 ft | 9 kts | 240° |
| 2026-04-21 17:28 | 25.24876 | 55.36391 | 41 ft | 6 kts | 208° |
| 2026-04-21 17:28 | 25.24847 | 55.36373 | 40 ft | 3 kts | 211° |
| 2026-04-21 17:28 | 25.24834 | 55.36364 | 39 ft | 1 kts | 211° |
| 2026-04-21 17:28 | 25.24833 | 55.36364 | 39 ft | 0 kts | 211° |